createdAt,value
2017-06-17T00:01:55.686Z,15.90
2017-06-17T00:04:23.234Z,15.90
2017-06-17T00:06:50.853Z,15.90
2017-06-17T00:09:18.384Z,15.90
2017-06-17T00:11:45.929Z,16.00
2017-06-17T00:14:13.499Z,15.90
2017-06-17T00:16:41.025Z,15.90
2017-06-17T00:19:09.329Z,15.90
2017-06-17T00:21:36.909Z,15.90
2017-06-17T00:24:04.430Z,15.90
2017-06-17T00:26:31.958Z,15.90
2017-06-17T00:28:59.548Z,15.90
2017-06-17T00:31:27.101Z,15.90
2017-06-17T00:33:55.400Z,15.90
2017-06-17T00:36:23.049Z,15.90
2017-06-17T00:38:50.566Z,15.90
2017-06-17T00:41:18.095Z,15.90
2017-06-17T00:43:45.673Z,15.90
2017-06-17T00:46:13.203Z,15.90
2017-06-17T00:48:40.744Z,15.90
2017-06-17T00:51:08.323Z,15.90
2017-06-17T00:53:35.843Z,15.90
2017-06-17T00:56:04.154Z,16.00
2017-06-17T00:58:31.727Z,16.00
2017-06-17T01:00:59.259Z,16.00
2017-06-17T01:03:27.551Z,15.90
2017-06-17T01:05:55.108Z,16.00
2017-06-17T01:08:22.652Z,15.90
2017-06-17T01:10:50.175Z,16.00
2017-06-17T01:13:17.754Z,16.00
2017-06-17T01:15:45.300Z,16.00
2017-06-17T01:18:12.838Z,16.00
2017-06-17T01:20:40.413Z,16.00
2017-06-17T01:23:07.939Z,16.00
2017-06-17T01:25:35.476Z,16.00
2017-06-17T01:28:03.825Z,16.00
2017-06-17T01:30:31.354Z,16.00
2017-06-17T01:32:58.921Z,16.00
2017-06-17T01:35:26.542Z,16.00
2017-06-17T01:37:54.065Z,16.00
2017-06-17T01:40:21.585Z,16.10
2017-06-17T01:42:49.178Z,16.10
2017-06-17T01:45:16.691Z,16.10
2017-06-17T01:47:44.214Z,16.10
2017-06-17T01:50:11.798Z,16.10
2017-06-17T01:52:40.110Z,16.20
2017-06-17T01:55:07.660Z,16.10
2017-06-17T01:57:35.269Z,16.10
2017-06-17T02:00:02.826Z,16.10
2017-06-17T02:02:30.371Z,16.10
2017-06-17T02:04:57.968Z,16.10
2017-06-17T02:07:25.489Z,16.10
2017-06-17T02:09:53.017Z,16.00
2017-06-17T02:12:20.601Z,16.10
2017-06-17T02:14:48.146Z,16.00
2017-06-17T02:17:15.667Z,16.00
2017-06-17T02:19:43.244Z,16.00
2017-06-17T02:22:10.768Z,16.00
2017-06-17T02:24:38.288Z,16.00
2017-06-17T02:27:05.867Z,15.90
2017-06-17T02:29:33.396Z,15.90
2017-06-17T02:32:00.937Z,16.00
2017-06-17T02:34:29.281Z,15.90
2017-06-17T02:36:56.863Z,15.90
2017-06-17T02:39:24.421Z,15.90
2017-06-17T02:41:52.007Z,15.90
2017-06-17T02:44:19.546Z,15.90
2017-06-17T02:46:47.083Z,15.90
2017-06-17T02:49:14.668Z,15.90
2017-06-17T02:51:42.196Z,15.90
2017-06-17T02:54:09.740Z,15.90
2017-06-17T02:56:37.323Z,15.90
2017-06-17T02:59:04.839Z,15.90
2017-06-17T03:01:32.374Z,15.90
2017-06-17T03:04:00.740Z,15.90
2017-06-17T03:06:28.264Z,15.90
2017-06-17T03:08:55.779Z,15.90
2017-06-17T03:11:28.663Z,15.90
2017-06-17T03:13:56.203Z,15.90
2017-06-17T03:16:23.724Z,15.90
2017-06-17T03:18:51.304Z,15.90
2017-06-17T03:21:18.842Z,15.90
2017-06-17T03:23:46.398Z,15.90
2017-06-17T03:26:13.971Z,15.80
2017-06-17T03:28:41.496Z,15.90
2017-06-17T03:31:09.026Z,15.90
2017-06-17T03:33:36.603Z,15.80
2017-06-17T03:36:04.899Z,15.80
2017-06-17T03:38:32.425Z,15.80
2017-06-17T03:41:00.009Z,15.80
2017-06-17T03:43:28.306Z,15.80
2017-06-17T03:45:55.844Z,15.80
2017-06-17T03:48:24.196Z,15.80
2017-06-17T03:50:51.714Z,15.80
2017-06-17T03:53:19.257Z,15.80
2017-06-17T03:55:46.831Z,15.80
2017-06-17T03:58:14.364Z,15.80
2017-06-17T04:00:41.895Z,15.80
2017-06-17T04:03:09.472Z,15.80
2017-06-17T04:05:37.796Z,15.70
2017-06-17T04:08:05.319Z,15.70
2017-06-17T04:10:33.663Z,15.70
2017-06-17T04:13:01.223Z,15.70
2017-06-17T04:15:28.757Z,15.70
2017-06-17T04:17:56.343Z,15.70
2017-06-17T04:20:23.872Z,15.70
2017-06-17T04:22:51.405Z,15.70
2017-06-17T04:25:19.745Z,15.60
2017-06-17T04:27:47.277Z,15.60
2017-06-17T04:30:14.823Z,15.60
2017-06-17T04:32:42.408Z,15.70
2017-06-17T04:35:09.928Z,15.70
2017-06-17T04:37:37.480Z,15.80
2017-06-17T04:40:05.845Z,15.80
2017-06-17T04:42:33.371Z,15.80
2017-06-17T04:45:00.911Z,15.90
2017-06-17T04:47:28.492Z,15.90
2017-06-17T04:49:56.014Z,15.90
2017-06-17T04:52:23.524Z,16.00
2017-06-17T04:54:51.102Z,16.00
2017-06-17T04:57:18.623Z,16.00
2017-06-17T04:59:46.136Z,16.00
2017-06-17T05:02:14.484Z,16.10
2017-06-17T05:04:42.117Z,16.10
2017-06-17T05:07:09.640Z,16.10
2017-06-17T05:09:37.215Z,16.10
2017-06-17T05:12:04.746Z,16.10
2017-06-17T05:14:32.270Z,16.10
2017-06-17T05:16:59.840Z,16.10
2017-06-17T05:19:27.396Z,16.10
2017-06-17T05:21:54.937Z,16.10
2017-06-17T05:24:22.514Z,16.10
2017-06-17T05:26:50.048Z,16.10
2017-06-17T05:29:17.577Z,16.20
2017-06-17T05:31:45.181Z,16.20
2017-06-17T05:34:12.715Z,16.20
2017-06-17T05:36:40.237Z,16.20
2017-06-17T05:39:07.838Z,16.30
2017-06-17T05:41:35.847Z,16.30
2017-06-17T05:44:03.381Z,16.30
2017-06-17T05:46:30.973Z,16.30
2017-06-17T05:48:58.494Z,16.40
2017-06-17T05:51:26.023Z,16.40
2017-06-17T05:53:55.100Z,16.50
2017-06-17T05:56:23.412Z,16.50
2017-06-17T05:58:51.718Z,16.50
2017-06-17T06:01:19.297Z,16.50
2017-06-17T06:03:46.809Z,16.50
2017-06-17T06:06:15.122Z,16.60
2017-06-17T06:08:42.702Z,16.50
2017-06-17T06:11:10.233Z,16.60
2017-06-17T06:13:37.763Z,16.60
2017-06-17T06:16:06.130Z,16.80
2017-06-17T06:18:34.420Z,16.80
2017-06-17T06:21:01.965Z,16.80
2017-06-17T06:23:29.645Z,16.80
2017-06-17T06:25:57.168Z,16.80
2017-06-17T06:28:24.740Z,16.90
2017-06-17T06:30:52.311Z,16.90
2017-06-17T06:33:20.600Z,17.00
2017-06-17T06:35:48.147Z,17.00
2017-06-17T06:38:15.725Z,17.00
2017-06-17T06:40:43.325Z,17.10
2017-06-17T06:43:10.941Z,17.00
2017-06-17T06:45:38.525Z,17.00
2017-06-17T06:48:06.108Z,17.00
2017-06-17T06:50:35.712Z,17.10
2017-06-17T06:53:03.330Z,17.20
2017-06-17T06:55:30.856Z,17.20
2017-06-17T06:57:58.407Z,17.20
2017-06-17T07:00:25.978Z,17.20
2017-06-17T07:02:53.500Z,17.30
2017-06-17T07:05:21.027Z,17.30
2017-06-17T07:07:48.605Z,17.40
2017-06-17T07:10:16.120Z,17.40
2017-06-17T07:12:43.653Z,17.50
2017-06-17T07:15:11.549Z,17.70
2017-06-17T07:17:39.069Z,17.80
2017-06-17T07:20:06.599Z,17.90
2017-06-17T07:22:34.211Z,17.90
2017-06-17T07:25:01.743Z,17.90
2017-06-17T07:27:29.282Z,17.90
2017-06-17T07:29:56.861Z,18.00
2017-06-17T07:32:24.385Z,18.00
2017-06-17T07:34:51.901Z,18.10
2017-06-17T07:37:19.479Z,18.10
2017-06-17T07:39:47.007Z,18.10
2017-06-17T07:42:14.552Z,18.00
2017-06-17T07:44:42.164Z,18.10
2017-06-17T07:47:12.791Z,18.00
2017-06-17T07:49:40.536Z,18.10
2017-06-17T07:52:08.110Z,18.10
2017-06-17T07:54:35.638Z,18.20
2017-06-17T07:57:03.929Z,18.30
2017-06-17T07:59:31.509Z,18.20
2017-06-17T08:01:59.039Z,18.20
2017-06-17T08:04:26.600Z,18.20
2017-06-17T08:06:54.178Z,18.10
2017-06-17T08:09:21.714Z,18.00
2017-06-17T08:11:49.256Z,17.90
2017-06-17T08:14:17.592Z,17.90
2017-06-17T08:16:45.121Z,17.90
2017-06-17T08:19:12.656Z,17.90
2017-06-17T08:21:40.989Z,17.90
2017-06-17T08:24:08.514Z,17.90
2017-06-17T08:26:36.098Z,17.90
2017-06-17T08:29:03.681Z,17.90
2017-06-17T08:31:31.206Z,17.90
2017-06-17T08:33:58.736Z,17.90
2017-06-17T08:36:27.076Z,18.00
2017-06-17T08:38:54.607Z,18.00
2017-06-17T08:41:22.135Z,18.10
2017-06-17T08:43:49.712Z,18.10
2017-06-17T08:46:18.005Z,18.20
2017-06-17T08:48:45.545Z,18.20
2017-06-17T08:51:13.178Z,18.30
2017-06-17T08:53:40.717Z,18.30
2017-06-17T08:56:08.252Z,18.40
2017-06-17T08:58:35.844Z,18.50
2017-06-17T09:01:04.140Z,18.60
2017-06-17T09:03:32.905Z,18.60
2017-06-17T09:11:47.094Z,18.70
2017-06-17T09:14:19.145Z,18.80
2017-06-17T09:39:44.505Z,19.70
2017-06-17T09:42:19.623Z,19.70
2017-06-17T09:44:47.243Z,19.80
2017-06-17T09:50:19.823Z,19.80
2017-06-17T09:52:47.386Z,19.80
2017-06-17T09:55:15.091Z,19.80
2017-06-17T09:57:43.771Z,19.90
2017-06-17T10:00:31.896Z,19.90
2017-06-17T10:11:59.692Z,20.10
2017-06-17T10:14:34.611Z,20.30
2017-06-17T10:17:04.956Z,20.20
2017-06-17T10:19:38.144Z,20.20
2017-06-17T10:22:05.854Z,20.30
2017-06-17T10:27:12.341Z,20.40
2017-06-17T10:29:42.799Z,20.40
2017-06-17T10:32:11.443Z,20.40
2017-06-17T10:34:39.592Z,20.60
2017-06-17T10:37:08.350Z,20.60
2017-06-17T10:39:42.258Z,20.70
2017-06-17T10:42:10.947Z,20.80
2017-06-17T10:44:40.298Z,20.70
2017-06-17T10:47:07.996Z,20.60
2017-06-17T10:49:35.556Z,20.40
2017-06-17T10:52:05.070Z,20.30
2017-06-17T10:54:32.697Z,20.30
2017-06-17T10:57:00.233Z,20.30
2017-06-17T10:59:27.789Z,20.40
2017-06-17T11:01:55.400Z,20.70
2017-06-17T11:04:22.938Z,20.90
2017-06-17T11:06:50.653Z,21.00
2017-06-17T11:09:18.260Z,21.10
2017-06-17T11:11:45.800Z,21.20
2017-06-17T11:14:13.338Z,21.30
2017-06-17T11:16:40.918Z,21.30
2017-06-17T11:19:08.487Z,21.30
2017-06-17T11:21:36.017Z,21.30
2017-06-17T11:24:03.624Z,21.50
2017-06-17T11:26:31.155Z,21.80
2017-06-17T11:28:59.069Z,21.90
2017-06-17T11:31:26.653Z,22.10
2017-06-17T11:33:54.205Z,22.30
2017-06-17T11:36:21.742Z,22.60
2017-06-17T11:38:49.325Z,22.90
2017-06-17T11:41:16.870Z,22.90
2017-06-17T11:43:44.445Z,22.80
2017-06-17T11:46:12.033Z,22.80
2017-06-17T11:48:39.564Z,23.00
2017-06-17T11:51:07.129Z,23.20
2017-06-17T11:53:34.708Z,23.40
2017-06-17T11:56:02.232Z,24.00
2017-06-17T11:58:29.770Z,24.30
2017-06-17T12:00:57.376Z,24.40
2017-06-17T12:03:24.917Z,24.80
2017-06-17T12:05:52.446Z,25.30
2017-06-17T12:08:20.105Z,25.50
2017-06-17T12:10:47.671Z,25.50
2017-06-17T12:13:15.210Z,25.20
2017-06-17T12:15:42.793Z,24.90
2017-06-17T12:18:10.352Z,24.70
2017-06-17T12:20:37.886Z,24.60
2017-06-17T12:23:05.476Z,24.50
2017-06-17T12:25:33.029Z,24.30
2017-06-17T12:28:00.561Z,24.10
2017-06-17T12:30:28.141Z,24.00
2017-06-17T12:32:55.715Z,23.80
2017-06-17T12:35:23.262Z,23.80
2017-06-17T12:37:50.849Z,23.90
2017-06-17T12:40:18.382Z,23.90
2017-06-17T12:42:45.923Z,24.10
2017-06-17T12:45:13.501Z,24.50
2017-06-17T12:47:41.033Z,24.90
2017-06-17T12:50:08.565Z,24.80
2017-06-17T12:52:36.153Z,24.60
2017-06-17T12:55:03.676Z,24.30
2017-06-17T12:57:31.201Z,24.20
2017-06-17T12:59:58.774Z,24.30
2017-06-17T13:02:26.302Z,25.10
2017-06-17T13:04:53.842Z,25.70
2017-06-17T13:07:21.449Z,25.60
2017-06-17T13:09:48.973Z,25.40
2017-06-17T13:12:16.501Z,25.60
2017-06-17T13:14:44.071Z,25.70
2017-06-17T13:17:11.614Z,25.60
2017-06-17T13:19:39.171Z,25.30
2017-06-17T13:22:06.782Z,25.90
2017-06-17T13:24:35.208Z,26.50
2017-06-17T13:27:03.632Z,26.80
2017-06-17T13:29:31.223Z,26.60
2017-06-17T13:31:58.771Z,26.40
2017-06-17T13:34:26.296Z,26.30
2017-06-17T13:36:53.888Z,26.10
2017-06-17T13:39:21.406Z,26.00
2017-06-17T13:41:48.961Z,25.90
2017-06-17T13:44:16.579Z,25.70
2017-06-17T13:46:44.109Z,26.20
2017-06-17T13:49:11.665Z,26.70
2017-06-17T13:51:39.507Z,27.30
2017-06-17T13:54:07.061Z,27.90
2017-06-17T13:56:34.608Z,28.60
2017-06-17T13:59:02.190Z,29.60
2017-06-17T14:01:29.736Z,30.30
2017-06-17T14:03:57.300Z,30.50
2017-06-17T14:06:24.897Z,30.70
2017-06-17T14:08:52.425Z,31.00
2017-06-17T14:11:19.962Z,31.50
2017-06-17T14:13:47.539Z,31.90
2017-06-17T14:16:15.095Z,32.10
2017-06-17T14:18:42.630Z,31.70
2017-06-17T14:21:31.021Z,31.80
2017-06-17T14:23:58.615Z,31.90
2017-06-17T14:26:26.132Z,32.10
2017-06-17T14:28:53.745Z,32.40
2017-06-17T14:31:21.276Z,32.40
2017-06-17T14:33:48.805Z,32.20
2017-06-17T14:36:16.399Z,31.90
2017-06-17T14:38:43.953Z,31.80
2017-06-17T14:41:11.471Z,31.80
2017-06-17T14:43:39.092Z,31.90
2017-06-17T14:46:06.617Z,31.80
2017-06-17T14:48:34.146Z,31.50
2017-06-17T14:51:01.738Z,30.80
2017-06-17T14:53:29.271Z,30.00
2017-06-17T14:55:56.815Z,29.50
2017-06-17T14:58:24.392Z,28.90
2017-06-17T15:00:51.912Z,28.30
2017-06-17T15:03:19.440Z,27.80
2017-06-17T15:05:47.040Z,27.70
2017-06-17T15:08:14.574Z,27.90
2017-06-17T15:10:42.130Z,27.80
2017-06-17T15:13:09.727Z,27.90
2017-06-17T15:15:37.281Z,28.40
2017-06-17T15:18:04.817Z,28.90
2017-06-17T15:20:32.403Z,29.30
2017-06-17T15:22:59.945Z,29.50
2017-06-17T15:25:27.470Z,29.50
2017-06-17T15:27:55.899Z,29.70
2017-06-17T15:30:23.429Z,29.90
2017-06-17T15:32:50.955Z,30.10
2017-06-17T15:35:18.531Z,30.10
2017-06-17T15:37:46.068Z,29.90
2017-06-17T15:40:13.596Z,29.50
2017-06-17T15:42:41.178Z,29.00
2017-06-17T15:45:08.712Z,28.80
2017-06-17T15:50:27.821Z,28.60
2017-06-17T15:52:56.272Z,29.00
2017-06-17T15:58:08.732Z,29.30
2017-06-17T16:00:41.155Z,29.50
2017-06-17T16:03:09.621Z,29.60
2017-06-17T16:05:45.561Z,29.70
2017-06-17T16:08:14.082Z,30.50
2017-06-17T16:10:50.577Z,31.10
2017-06-17T16:13:18.224Z,31.50
2017-06-17T16:15:45.756Z,31.70
2017-06-17T16:18:13.311Z,31.70
2017-06-17T16:20:40.901Z,31.60
2017-06-17T16:23:08.432Z,31.40
2017-06-17T16:25:35.969Z,31.30
2017-06-17T16:28:03.632Z,31.30
2017-06-17T16:38:29.284Z,30.60
2017-06-17T16:43:41.749Z,30.40
2017-06-17T16:46:09.295Z,30.30
2017-06-17T16:48:36.827Z,29.90
2017-06-17T16:51:04.538Z,29.60
2017-06-17T16:53:32.063Z,29.00
2017-06-17T16:55:59.620Z,28.50
2017-06-17T16:58:27.192Z,28.00
2017-06-17T17:00:54.724Z,27.50
2017-06-17T17:03:22.311Z,27.30
2017-06-17T17:05:49.905Z,27.20
2017-06-17T17:08:17.586Z,26.90
2017-06-17T17:10:45.113Z,26.70
2017-06-17T17:13:12.761Z,26.40
2017-06-17T17:15:40.302Z,26.20
2017-06-17T17:18:08.517Z,26.30
2017-06-17T17:20:37.243Z,26.50
2017-06-17T17:23:04.793Z,27.00
2017-06-17T17:25:32.324Z,27.40
2017-06-17T17:27:59.903Z,27.70
2017-06-17T17:30:27.451Z,27.70
2017-06-17T17:32:54.998Z,27.90
2017-06-17T17:35:22.603Z,28.10
2017-06-17T17:37:50.145Z,28.30
2017-06-17T17:40:17.669Z,28.50
2017-06-17T17:42:45.255Z,28.70
2017-06-17T17:45:12.787Z,28.90
2017-06-17T17:47:40.325Z,28.90
2017-06-17T17:50:07.929Z,28.90
2017-06-17T17:52:35.469Z,28.80
2017-06-17T17:55:03.009Z,28.60
2017-06-17T17:57:30.601Z,28.30
2017-06-17T17:59:58.158Z,28.30
2017-06-17T18:02:25.693Z,28.10
2017-06-17T18:04:53.881Z,27.70
2017-06-17T18:07:21.400Z,27.30
2017-06-17T18:09:48.950Z,27.00
2017-06-17T18:12:17.391Z,26.70
2017-06-17T18:14:45.569Z,26.50
2017-06-17T18:17:13.110Z,26.40
2017-06-17T18:19:40.698Z,26.50
2017-06-17T18:22:08.232Z,26.40
2017-06-17T18:24:35.776Z,26.30
2017-06-17T18:27:03.414Z,26.10
2017-06-17T18:35:16.891Z,25.50
2017-06-17T18:37:44.435Z,25.30
2017-06-17T18:40:12.013Z,25.20
2017-06-17T18:42:39.602Z,25.10
2017-06-17T18:45:07.137Z,24.90
2017-06-17T18:47:34.669Z,24.80
2017-06-17T18:50:02.249Z,24.50
2017-06-17T18:52:29.786Z,24.40
2017-06-17T18:54:57.316Z,24.20
2017-06-17T18:57:25.430Z,24.10
2017-06-17T18:59:52.955Z,24.00
2017-06-17T19:02:20.486Z,23.80
2017-06-17T19:04:48.058Z,23.60
2017-06-17T19:07:15.589Z,23.50
2017-06-17T19:09:44.171Z,23.30
2017-06-17T19:12:11.750Z,23.20
2017-06-17T19:14:39.280Z,23.00
2017-06-17T19:17:06.841Z,22.90
2017-06-17T19:19:34.440Z,22.70
2017-06-17T19:22:02.000Z,22.60
2017-06-17T19:24:29.563Z,22.40
2017-06-17T19:26:57.410Z,22.30
2017-06-17T19:29:24.941Z,22.20
2017-06-17T19:31:52.517Z,22.10
2017-06-17T19:34:20.090Z,21.90
2017-06-17T19:36:47.638Z,21.80
2017-06-17T19:39:15.174Z,21.70
2017-06-17T19:41:42.798Z,21.50
2017-06-17T19:44:10.331Z,21.40
2017-06-17T19:46:37.885Z,21.30
2017-06-17T19:49:05.470Z,21.20
2017-06-17T19:51:33.010Z,21.10
2017-06-17T19:54:00.589Z,21.10
2017-06-17T19:56:28.168Z,21.00
2017-06-17T19:58:55.727Z,20.90
2017-06-17T20:01:23.350Z,20.80
2017-06-17T20:03:50.958Z,20.70
2017-06-17T20:06:18.528Z,20.60
2017-06-17T20:08:46.064Z,20.50
2017-06-17T20:11:13.651Z,20.40
2017-06-17T20:13:41.200Z,20.30
2017-06-17T20:16:08.757Z,20.20
2017-06-17T20:18:36.333Z,20.20
2017-06-17T20:21:09.438Z,20.10
2017-06-17T20:23:37.078Z,20.10
2017-06-17T20:26:04.670Z,20.00
2017-06-17T20:28:32.229Z,19.90
2017-06-17T20:31:01.541Z,19.90
2017-06-17T20:33:29.083Z,19.80
2017-06-17T20:35:56.776Z,19.70
2017-06-17T20:38:26.654Z,19.60
2017-06-17T20:40:57.496Z,19.60
2017-06-17T20:43:25.086Z,19.50
2017-06-17T20:45:52.711Z,19.40
2017-06-17T20:48:20.273Z,19.40
2017-06-17T20:50:47.831Z,19.30
2017-06-17T20:53:15.425Z,19.30
2017-06-17T20:55:43.012Z,19.20
2017-06-17T20:58:10.584Z,19.20
2017-06-17T21:00:38.182Z,19.10
2017-06-17T21:03:05.733Z,19.10
2017-06-17T21:05:33.292Z,19.10
2017-06-17T21:08:00.892Z,19.00
2017-06-17T21:10:28.426Z,19.00
2017-06-17T21:12:55.985Z,18.90
2017-06-17T21:15:23.575Z,18.90
2017-06-17T21:17:51.121Z,18.80
2017-06-17T21:20:18.664Z,18.70
2017-06-17T21:22:46.243Z,18.70
2017-06-17T21:25:13.777Z,18.60
2017-06-17T21:27:41.315Z,18.60
2017-06-17T21:30:08.925Z,18.50
2017-06-17T21:32:36.468Z,18.60
2017-06-17T21:35:04.010Z,18.50
2017-06-17T21:37:31.599Z,18.50
2017-06-17T21:39:59.146Z,18.40
2017-06-17T21:42:26.690Z,18.40
2017-06-17T21:44:54.284Z,18.40
2017-06-17T21:47:21.864Z,18.30
2017-06-17T21:49:49.422Z,18.30
2017-06-17T21:52:17.048Z,18.30
2017-06-17T21:54:44.599Z,18.30
2017-06-17T21:57:12.153Z,18.20
2017-06-17T21:59:39.739Z,18.20
2017-06-17T22:02:07.288Z,18.20
2017-06-17T22:04:34.874Z,18.10
2017-06-17T22:07:02.469Z,18.10
2017-06-17T22:09:30.025Z,18.10
2017-06-17T22:11:57.556Z,18.00
2017-06-17T22:14:25.133Z,18.00
2017-06-17T22:16:52.669Z,17.90
2017-06-17T22:19:20.208Z,17.90
2017-06-17T22:21:47.798Z,17.80
2017-06-17T22:24:15.388Z,17.80
2017-06-17T22:26:42.932Z,17.70
2017-06-17T22:29:10.596Z,17.70
2017-06-17T22:31:38.157Z,17.60
2017-06-17T22:34:05.697Z,17.60
2017-06-17T22:36:33.268Z,17.60
2017-06-17T22:39:00.824Z,17.60
2017-06-17T22:41:28.387Z,17.50
2017-06-17T22:43:55.976Z,17.40
2017-06-17T22:46:23.565Z,17.40
2017-06-17T22:48:51.090Z,17.40
2017-06-17T22:51:18.677Z,17.30
2017-06-17T22:53:46.239Z,17.30
2017-06-17T22:56:13.780Z,17.20
2017-06-17T22:58:41.360Z,17.20
2017-06-17T23:01:08.923Z,17.20
2017-06-17T23:03:36.452Z,17.10
2017-06-17T23:06:04.070Z,17.10
2017-06-17T23:08:31.596Z,17.00
2017-06-17T23:10:59.140Z,16.90
2017-06-17T23:13:26.738Z,16.90
2017-06-17T23:15:54.298Z,16.80
2017-06-17T23:18:21.841Z,16.80
2017-06-17T23:20:49.408Z,16.70
2017-06-17T23:23:16.931Z,16.70
2017-06-17T23:25:44.458Z,16.70
2017-06-17T23:28:12.067Z,16.70
2017-06-17T23:30:39.609Z,16.70
2017-06-17T23:33:07.138Z,16.60
2017-06-17T23:35:34.724Z,16.60
2017-06-17T23:38:02.280Z,16.60
2017-06-17T23:40:29.813Z,16.60
2017-06-17T23:42:57.392Z,16.60
2017-06-17T23:45:24.937Z,16.60
2017-06-17T23:47:52.543Z,16.50
2017-06-17T23:50:20.137Z,16.50
2017-06-17T23:52:47.681Z,16.50
2017-06-17T23:55:15.203Z,16.50
2017-06-17T23:57:42.779Z,16.50
